createdAt,value
2018-09-03T00:02:09.754Z,13.60
2018-09-03T00:04:38.024Z,14.27
2018-09-03T00:07:06.275Z,14.23
2018-09-03T00:09:41.122Z,13.07
2018-09-03T00:12:09.994Z,14.57
2018-09-03T00:14:38.286Z,13.57
2018-09-03T00:17:07.276Z,14.20
2018-09-03T00:19:35.617Z,14.43
2018-09-03T00:22:03.882Z,15.70
2018-09-03T00:24:32.102Z,16.30
2018-09-03T00:27:00.422Z,14.60
2018-09-03T00:29:28.634Z,16.83
2018-09-03T00:32:02.209Z,15.80
2018-09-03T00:34:35.969Z,15.77
2018-09-03T00:37:09.703Z,14.97
2018-09-03T00:39:43.383Z,13.67
2018-09-03T00:42:17.013Z,14.47
2018-09-03T00:44:51.153Z,14.70
2018-09-03T00:47:19.406Z,14.70
2018-09-03T00:49:47.870Z,14.80
2018-09-03T00:52:16.431Z,16.43
2018-09-03T00:54:44.664Z,15.00
2018-09-03T00:57:12.906Z,15.77
2018-09-03T00:59:41.149Z,14.47
2018-09-03T01:02:09.386Z,15.13
2018-09-03T01:04:37.611Z,15.97
2018-09-03T01:07:05.871Z,16.87
2018-09-03T01:09:34.094Z,16.50
2018-09-03T01:12:02.333Z,16.63
2018-09-03T01:14:30.793Z,14.10
2018-09-03T01:16:59.023Z,15.13
2018-09-03T01:19:27.278Z,14.57
2018-09-03T01:21:55.539Z,14.37
2018-09-03T01:24:23.782Z,13.30
2018-09-03T01:26:52.065Z,14.50
2018-09-03T01:29:20.295Z,13.90
2018-09-03T01:31:48.553Z,14.60
2018-09-03T01:34:16.787Z,16.20
2018-09-03T01:36:45.019Z,15.47
2018-09-03T01:39:13.247Z,13.20
2018-09-03T01:41:47.709Z,14.80
2018-09-03T01:44:15.932Z,15.73
2018-09-03T01:46:44.183Z,14.33
2018-09-03T01:49:12.401Z,14.83
2018-09-03T01:51:40.643Z,14.03
2018-09-03T01:54:08.862Z,15.67
2018-09-03T01:56:37.099Z,12.23
2018-09-03T01:59:05.356Z,15.70
2018-09-03T02:01:33.583Z,15.17
2018-09-03T02:04:01.818Z,14.10
2018-09-03T02:06:30.080Z,13.57
2018-09-03T02:08:58.306Z,14.40
2018-09-03T02:11:26.542Z,14.93
2018-09-03T02:13:54.777Z,13.70
2018-09-03T02:16:23.007Z,14.00
2018-09-03T02:18:51.254Z,13.67
2018-09-03T02:21:19.503Z,15.00
2018-09-03T02:23:47.742Z,13.23
2018-09-03T02:26:15.983Z,13.87
2018-09-03T02:28:44.227Z,15.20
2018-09-03T02:31:12.441Z,15.47
2018-09-03T02:33:40.674Z,16.33
2018-09-03T02:36:08.927Z,15.93
2018-09-03T02:38:37.165Z,16.97
2018-09-03T02:41:05.594Z,14.90
2018-09-03T02:43:33.886Z,15.63
2018-09-03T02:46:02.108Z,16.17
2018-09-03T02:48:30.336Z,15.23
2018-09-03T02:50:58.556Z,15.20
2018-09-03T02:53:26.798Z,15.20
2018-09-03T02:55:55.011Z,16.17
2018-09-03T02:58:23.249Z,16.20
2018-09-03T03:00:51.480Z,15.90
2018-09-03T03:03:19.734Z,17.57
2018-09-03T03:05:47.971Z,17.23
2018-09-03T03:08:16.245Z,16.00
2018-09-03T03:10:44.496Z,16.20
2018-09-03T03:13:12.761Z,16.77
2018-09-03T03:15:40.984Z,15.77
2018-09-03T03:18:09.202Z,14.90
2018-09-03T03:20:37.442Z,14.40
2018-09-03T03:23:05.670Z,14.53
2018-09-03T03:25:33.922Z,15.73
2018-09-03T03:28:02.162Z,15.20
2018-09-03T03:30:30.397Z,16.00
2018-09-03T03:32:58.628Z,15.57
2018-09-03T03:38:01.506Z,16.37
2018-09-03T03:40:29.770Z,17.40
2018-09-03T03:42:57.994Z,15.73
2018-09-03T03:45:26.252Z,16.87
2018-09-03T03:47:54.528Z,17.40
2018-09-03T03:50:22.771Z,16.77
2018-09-03T03:52:51.011Z,16.20
2018-09-03T03:55:19.279Z,17.33
2018-09-03T03:57:47.520Z,17.40
2018-09-03T04:00:15.798Z,18.70
2018-09-03T04:02:44.055Z,18.07
2018-09-03T04:05:12.285Z,18.60
2018-09-03T04:07:40.538Z,17.23
2018-09-03T04:10:08.794Z,17.23
2018-09-03T04:12:37.020Z,16.13
2018-09-03T04:15:05.378Z,16.23
2018-09-03T04:17:33.642Z,17.67
2018-09-03T04:20:04.050Z,18.70
2018-09-03T04:22:33.229Z,18.00
2018-09-03T04:25:02.141Z,16.60
2018-09-03T04:27:30.387Z,19.50
2018-09-03T04:29:58.640Z,17.77
2018-09-03T04:32:26.898Z,18.07
2018-09-03T04:34:55.161Z,18.70
2018-09-03T04:37:23.393Z,17.60
2018-09-03T04:39:51.644Z,17.10
2018-09-03T04:42:19.878Z,17.53
2018-09-03T04:44:48.122Z,16.13
2018-09-03T04:47:16.371Z,17.37
2018-09-03T04:49:44.607Z,17.30
2018-09-03T04:52:12.866Z,17.50
2018-09-03T04:54:41.110Z,18.07
2018-09-03T04:57:09.350Z,17.30
2018-09-03T04:59:37.583Z,17.90
2018-09-03T05:02:06.168Z,17.53
2018-09-03T05:04:34.410Z,18.30
2018-09-03T05:07:02.667Z,16.97
2018-09-03T05:09:30.934Z,16.93
2018-09-03T05:11:59.185Z,18.37
2018-09-03T05:14:27.449Z,18.47
2018-09-03T05:16:55.702Z,16.80
2018-09-03T05:19:23.944Z,17.87
2018-09-03T05:21:52.601Z,17.10
2018-09-03T05:24:20.838Z,16.70
2018-09-03T05:26:49.090Z,16.90
2018-09-03T05:29:17.452Z,17.60
2018-09-03T05:31:45.735Z,17.20
2018-09-03T05:34:14.058Z,17.93
2018-09-03T05:36:42.320Z,16.83
2018-09-03T05:39:11.871Z,17.80
2018-09-03T05:41:40.397Z,15.57
2018-09-03T05:44:09.337Z,15.93
2018-09-03T05:46:38.326Z,17.50
2018-09-03T05:49:06.572Z,16.90
2018-09-03T05:51:34.807Z,17.73
2018-09-03T05:54:03.042Z,16.83
2018-09-03T05:56:31.294Z,17.43
2018-09-03T05:58:59.574Z,16.50
2018-09-03T06:01:27.792Z,18.60
2018-09-03T06:03:56.015Z,16.70
2018-09-03T06:06:24.258Z,17.43
2018-09-03T06:08:52.503Z,18.97
2018-09-03T06:11:20.742Z,17.33
2018-09-03T06:13:48.986Z,16.80
2018-09-03T06:16:17.209Z,18.40
2018-09-03T06:18:45.446Z,17.33
2018-09-03T06:21:13.687Z,17.40
2018-09-03T06:23:41.970Z,18.03
2018-09-03T06:26:16.594Z,18.40
2018-09-03T06:28:44.823Z,17.00
2018-09-03T06:31:13.039Z,20.10
2018-09-03T06:33:41.272Z,16.70
2018-09-03T06:36:09.509Z,17.20
2018-09-03T06:38:37.763Z,17.03
2018-09-03T06:41:06.242Z,18.50
2018-09-03T06:43:34.466Z,18.43
2018-09-03T06:46:02.695Z,16.83
2018-09-03T06:48:30.939Z,17.00
2018-09-03T06:50:59.163Z,17.70
2018-09-03T06:53:27.430Z,17.83
2018-09-03T06:55:55.639Z,18.47
2018-09-03T06:58:23.880Z,17.90
2018-09-03T07:00:52.111Z,16.50
2018-09-03T07:03:20.354Z,17.90
2018-09-03T07:05:48.606Z,17.80
2018-09-03T07:08:16.840Z,16.90
2018-09-03T07:10:45.056Z,15.80
2018-09-03T07:13:13.293Z,16.20
2018-09-03T07:15:41.519Z,16.33
2018-09-03T07:18:09.760Z,16.10
2018-09-03T07:20:37.991Z,14.83
2018-09-03T07:23:06.271Z,15.47
2018-09-03T07:25:34.510Z,13.70
2018-09-03T07:28:02.735Z,14.93
2018-09-03T07:30:30.959Z,13.60
2018-09-03T07:32:59.194Z,13.00
2018-09-03T07:35:27.428Z,13.50
2018-09-03T07:37:55.688Z,13.67
2018-09-03T07:40:23.911Z,12.67
2018-09-03T07:42:52.170Z,15.50
2018-09-03T07:45:20.407Z,13.73
2018-09-03T07:47:48.634Z,12.43
2018-09-03T07:50:16.885Z,14.30
2018-09-03T07:52:45.114Z,13.47
2018-09-03T07:55:13.351Z,13.27
2018-09-03T07:57:41.574Z,13.80
2018-09-03T08:00:09.825Z,12.40
2018-09-03T08:02:38.054Z,12.40
2018-09-03T08:05:06.862Z,12.97
2018-09-03T08:07:35.132Z,11.17
2018-09-03T08:10:03.330Z,12.77
2018-09-03T08:12:31.571Z,12.50
2018-09-03T08:14:59.827Z,11.93
2018-09-03T08:17:28.048Z,11.93
2018-09-03T08:19:56.299Z,12.47
2018-09-03T08:22:24.514Z,12.00
2018-09-03T08:24:52.758Z,12.20
2018-09-03T08:27:20.994Z,13.07
2018-09-03T08:29:49.230Z,12.30
2018-09-03T08:32:17.469Z,11.07
2018-09-03T08:34:45.703Z,10.47
2018-09-03T08:37:13.926Z,11.30
2018-09-03T08:39:42.170Z,10.80
2018-09-03T08:42:10.428Z,10.80
2018-09-03T08:44:38.702Z,12.07
2018-09-03T08:47:06.930Z,10.10
2018-09-03T08:49:35.171Z,10.70
2018-09-03T08:52:03.396Z,10.90
2018-09-03T08:54:31.635Z,10.80
2018-09-03T08:56:59.872Z,11.20
2018-09-03T08:59:28.110Z,9.87
2018-09-03T09:01:56.331Z,10.83
2018-09-03T09:04:24.563Z,10.20
2018-09-03T09:06:52.789Z,9.40
2018-09-03T09:09:21.017Z,9.40
2018-09-03T09:11:49.301Z,10.00
2018-09-03T09:14:17.499Z,10.00
2018-09-03T09:16:45.751Z,10.37
2018-09-03T09:19:13.979Z,9.17
2018-09-03T09:21:42.231Z,10.00
2018-09-03T09:24:10.488Z,9.60
2018-09-03T09:26:38.753Z,10.00
2018-09-03T09:29:06.986Z,11.00
2018-09-03T09:31:35.227Z,10.33
2018-09-03T09:34:03.452Z,9.80
2018-09-03T09:36:31.712Z,10.03
2018-09-03T09:38:59.956Z,9.47
2018-09-03T09:41:28.204Z,9.53
2018-09-03T09:43:56.441Z,9.27
2018-09-03T09:46:24.690Z,12.03
2018-09-03T09:48:53.762Z,10.30
2018-09-03T09:51:22.001Z,9.33
2018-09-03T09:53:50.239Z,9.40
2018-09-03T09:56:18.507Z,9.63
2018-09-03T09:58:46.746Z,8.97
2018-09-03T10:01:20.302Z,9.70
2018-09-03T10:03:48.533Z,9.43
2018-09-03T10:06:16.772Z,8.80
2018-09-03T10:08:45.007Z,8.60
2018-09-03T10:11:13.274Z,7.90
2018-09-03T10:13:41.515Z,9.10
2018-09-03T10:16:09.736Z,9.00
2018-09-03T10:18:38.000Z,8.13
2018-09-03T10:21:06.235Z,8.50
2018-09-03T10:23:34.466Z,8.37
2018-09-03T10:26:02.682Z,8.30
2018-09-03T10:28:31.023Z,9.67
2018-09-03T10:30:59.259Z,9.00
2018-09-03T10:33:27.474Z,8.60
2018-09-03T10:35:55.723Z,8.10
2018-09-03T10:38:23.946Z,7.97
2018-09-03T10:40:52.188Z,9.10
2018-09-03T10:43:20.421Z,8.70
2018-09-03T10:45:48.642Z,8.03
2018-09-03T10:48:17.720Z,9.67
2018-09-03T10:50:46.281Z,9.77
2018-09-03T10:53:14.552Z,9.07
2018-09-03T10:55:42.777Z,8.33
2018-09-03T10:58:11.840Z,8.30
2018-09-03T11:00:40.063Z,8.13
2018-09-03T11:03:08.308Z,9.57
2018-09-03T11:05:36.517Z,8.47
2018-09-03T11:08:04.739Z,7.83
2018-09-03T11:10:32.957Z,10.13
2018-09-03T11:13:01.212Z,9.50
2018-09-03T11:15:29.436Z,7.90
2018-09-03T11:17:57.646Z,7.10
2018-09-03T11:20:28.045Z,6.87
2018-09-03T11:22:56.865Z,8.37
2018-09-03T11:25:26.243Z,7.73
2018-09-03T11:27:55.155Z,9.00
2018-09-03T11:30:23.817Z,8.47
2018-09-03T11:32:57.227Z,8.00
2018-09-03T11:35:25.691Z,8.80
2018-09-03T11:37:53.926Z,9.83
2018-09-03T11:40:22.970Z,9.23
2018-09-03T11:42:51.192Z,7.57
2018-09-03T11:45:20.543Z,7.67
2018-09-03T11:47:49.037Z,6.67
2018-09-03T11:50:18.035Z,8.00
2018-09-03T11:52:46.254Z,6.80
2018-09-03T11:55:15.009Z,6.40
2018-09-03T11:57:43.457Z,7.07
2018-09-03T12:00:15.101Z,7.90
2018-09-03T12:02:43.313Z,7.83
2018-09-03T12:05:11.523Z,7.90
2018-09-03T12:07:39.743Z,7.10
2018-09-03T12:10:07.973Z,7.30
2018-09-03T12:12:36.910Z,6.93
2018-09-03T12:15:10.331Z,7.10
2018-09-03T12:17:38.545Z,7.43
2018-09-03T12:20:06.796Z,6.80
2018-09-03T12:22:35.094Z,7.67
2018-09-03T12:25:03.337Z,6.40
2018-09-03T12:27:31.579Z,7.63
2018-09-03T12:30:07.007Z,6.83
2018-09-03T12:32:35.219Z,7.17
2018-09-03T12:35:03.477Z,8.03
2018-09-03T12:37:31.778Z,6.97
2018-09-03T12:40:00.128Z,8.17
2018-09-03T12:42:28.336Z,6.30
2018-09-03T12:44:56.579Z,6.23
2018-09-03T12:47:24.790Z,5.47
2018-09-03T12:49:52.997Z,5.80
2018-09-03T12:52:21.219Z,5.83
2018-09-03T12:54:49.429Z,5.77
2018-09-03T12:57:17.734Z,5.70
2018-09-03T12:59:45.949Z,5.73
2018-09-03T13:02:14.146Z,6.00
2018-09-03T13:04:42.383Z,6.43
2018-09-03T13:07:10.608Z,5.80
2018-09-03T13:09:38.831Z,5.70
2018-09-03T13:12:07.032Z,5.90
2018-09-03T13:14:35.259Z,5.93
2018-09-03T13:17:03.771Z,5.23
2018-09-03T13:19:31.992Z,5.50
2018-09-03T13:22:00.209Z,5.57
2018-09-03T13:24:28.463Z,5.20
2018-09-03T13:26:56.693Z,5.00
2018-09-03T13:29:24.950Z,5.23
2018-09-03T13:31:53.177Z,4.80
2018-09-03T13:34:21.403Z,5.10
2018-09-03T13:36:49.626Z,5.17
2018-09-03T13:39:17.845Z,4.83
2018-09-03T13:41:46.146Z,4.33
2018-09-03T13:44:14.353Z,5.03
2018-09-03T13:46:42.576Z,4.67
2018-09-03T13:49:10.787Z,4.70
2018-09-03T13:51:38.999Z,5.03
2018-09-03T13:54:07.216Z,4.73
2018-09-03T13:56:35.493Z,4.20
2018-09-03T13:59:03.676Z,4.50
2018-09-03T14:01:31.899Z,4.63
2018-09-03T14:04:00.120Z,4.30
2018-09-03T14:06:28.368Z,4.47
2018-09-03T14:08:56.597Z,4.90
2018-09-03T14:11:24.850Z,4.57
2018-09-03T14:13:53.100Z,5.03
2018-09-03T14:16:21.322Z,4.60
2018-09-03T14:18:49.531Z,4.27
2018-09-03T14:21:17.773Z,5.37
2018-09-03T14:23:45.979Z,5.07
2018-09-03T14:26:14.235Z,4.97
2018-09-03T14:28:43.508Z,4.70
2018-09-03T14:31:11.720Z,4.50
2018-09-03T14:33:39.945Z,4.27
2018-09-03T14:36:08.391Z,3.80
2018-09-03T14:38:36.619Z,4.40
2018-09-03T14:41:04.866Z,5.53
2018-09-03T14:43:33.103Z,4.83
2018-09-03T14:46:01.350Z,4.10
2018-09-03T14:48:29.583Z,4.87
2018-09-03T14:50:57.825Z,4.80
2018-09-03T14:53:26.059Z,4.67
2018-09-03T14:55:54.278Z,4.30
2018-09-03T14:58:22.489Z,4.37
2018-09-03T15:00:50.699Z,3.90
2018-09-03T15:03:18.941Z,4.40
2018-09-03T15:05:47.167Z,3.90
2018-09-03T15:08:15.433Z,4.30
2018-09-03T15:10:43.676Z,5.43
2018-09-03T15:13:11.918Z,5.20
2018-09-03T15:15:40.160Z,4.87
2018-09-03T15:18:08.376Z,4.97
2018-09-03T15:20:36.676Z,4.70
2018-09-03T15:23:04.921Z,4.70
2018-09-03T15:25:33.148Z,4.60
2018-09-03T15:28:01.365Z,4.30
2018-09-03T15:30:29.565Z,4.57
2018-09-03T15:32:57.787Z,3.93
2018-09-03T15:35:26.015Z,4.30
2018-09-03T15:37:54.234Z,4.63
2018-09-03T15:40:22.535Z,4.50
2018-09-03T15:42:50.767Z,4.70
2018-09-03T15:45:19.377Z,4.50
2018-09-03T15:47:47.611Z,4.47
2018-09-03T15:50:15.815Z,3.83
2018-09-03T15:52:44.097Z,4.73
2018-09-03T15:55:12.272Z,3.60
2018-09-03T15:57:40.486Z,4.70
2018-09-03T16:00:09.522Z,3.90
2018-09-03T16:02:38.006Z,4.27
2018-09-03T16:05:06.246Z,4.70
2018-09-03T16:07:34.482Z,4.70
2018-09-03T16:10:02.741Z,4.03
2018-09-03T16:12:30.976Z,3.80
2018-09-03T16:14:59.185Z,3.90
2018-09-03T16:17:27.411Z,3.97
2018-09-03T16:19:55.619Z,4.50
2018-09-03T16:22:23.858Z,4.50
2018-09-03T16:24:52.062Z,4.07
2018-09-03T16:27:20.345Z,4.30
2018-09-03T16:29:48.531Z,4.27
2018-09-03T16:32:16.734Z,4.50
2018-09-03T16:34:44.970Z,4.17
2018-09-03T16:37:13.181Z,4.53
2018-09-03T16:39:41.442Z,4.60
2018-09-03T16:42:09.798Z,4.43
2018-09-03T16:44:37.890Z,4.80
2018-09-03T16:47:06.118Z,4.50
2018-09-03T16:49:34.352Z,5.13
2018-09-03T16:52:02.577Z,4.27
2018-09-03T16:54:30.812Z,4.70
2018-09-03T16:56:59.124Z,4.50
2018-09-03T16:59:27.359Z,4.27
2018-09-03T17:01:55.562Z,4.50
2018-09-03T17:04:23.785Z,4.30
2018-09-03T17:06:52.014Z,4.73
2018-09-03T17:09:20.246Z,4.60
2018-09-03T17:11:48.482Z,4.80
2018-09-03T17:14:16.699Z,4.70
2018-09-03T17:16:44.916Z,4.90
2018-09-03T17:19:13.134Z,4.87
2018-09-03T17:21:41.366Z,4.70
2018-09-03T17:24:09.595Z,5.03
2018-09-03T17:26:37.808Z,5.00
2018-09-03T17:29:06.047Z,5.17
2018-09-03T17:31:34.281Z,4.70
2018-09-03T17:34:02.572Z,4.17
2018-09-03T17:36:30.826Z,4.93
2018-09-03T17:38:59.071Z,5.20
2018-09-03T17:41:27.287Z,5.53
2018-09-03T17:43:55.523Z,5.10
2018-09-03T17:46:23.746Z,4.50
2018-09-03T17:48:51.992Z,4.83
2018-09-03T17:51:20.223Z,5.43
2018-09-03T17:53:48.439Z,4.37
2018-09-03T17:56:16.671Z,4.63
2018-09-03T17:58:44.879Z,4.40
2018-09-03T18:01:13.241Z,4.07
2018-09-03T18:03:41.468Z,5.47
2018-09-03T18:06:09.701Z,4.03
2018-09-03T18:08:37.915Z,4.13
2018-09-03T18:11:06.169Z,4.27
2018-09-03T18:13:34.378Z,4.90
2018-09-03T18:16:02.605Z,4.77
2018-09-03T18:18:30.811Z,4.40
2018-09-03T18:20:59.039Z,4.30
2018-09-03T18:23:27.234Z,4.20
2018-09-03T18:25:55.476Z,4.33
2018-09-03T18:28:23.705Z,4.50
2018-09-03T18:30:51.941Z,4.27
2018-09-03T18:33:20.192Z,4.97
2018-09-03T18:35:48.560Z,4.40
2018-09-03T18:38:16.770Z,4.57
2018-09-03T18:40:44.992Z,4.73
2018-09-03T18:43:13.238Z,4.97
2018-09-03T18:45:41.463Z,5.00
2018-09-03T18:48:09.685Z,4.80
2018-09-03T18:50:37.908Z,4.47
2018-09-03T18:53:06.139Z,4.80
2018-09-03T18:55:34.358Z,4.80
2018-09-03T18:58:02.573Z,4.73
2018-09-03T19:00:30.811Z,4.40
2018-09-03T19:02:59.035Z,4.60
2018-09-03T19:05:27.247Z,4.50
2018-09-03T19:07:55.479Z,4.40
2018-09-03T19:10:23.716Z,5.07
2018-09-03T19:12:51.944Z,5.10
2018-09-03T19:15:20.166Z,4.73
2018-09-03T19:17:48.394Z,4.63
2018-09-03T19:20:16.609Z,4.73
2018-09-03T19:22:44.861Z,4.77
2018-09-03T19:25:13.087Z,4.40
2018-09-03T19:27:41.316Z,3.90
2018-09-03T19:30:09.527Z,4.20
2018-09-03T19:32:37.754Z,3.93
2018-09-03T19:35:05.989Z,4.30
2018-09-03T19:37:34.211Z,4.80
2018-09-03T19:40:02.431Z,4.47
2018-09-03T19:42:30.642Z,4.87
2018-09-03T19:44:58.853Z,4.80
2018-09-03T19:47:27.070Z,4.57
2018-09-03T19:49:55.271Z,5.20
2018-09-03T19:52:23.494Z,4.53
2018-09-03T19:54:51.714Z,4.70
2018-09-03T19:57:19.938Z,4.50
2018-09-03T19:59:48.180Z,4.30
2018-09-03T20:02:16.484Z,3.80
2018-09-03T20:04:44.682Z,4.40
2018-09-03T20:07:12.928Z,4.50
2018-09-03T20:09:41.134Z,4.20
2018-09-03T20:12:09.352Z,4.30
2018-09-03T20:14:37.559Z,3.93
2018-09-03T20:17:05.811Z,4.27
2018-09-03T20:19:34.016Z,4.50
2018-09-03T20:22:02.236Z,4.50
2018-09-03T20:24:30.485Z,4.70
2018-09-03T20:26:58.722Z,4.40
2018-09-03T20:29:26.990Z,4.50
2018-09-03T20:31:55.198Z,4.40
2018-09-03T20:34:23.440Z,4.00
2018-09-03T20:36:51.655Z,4.90
2018-09-03T20:39:19.875Z,5.20
2018-09-03T20:41:48.088Z,4.53
2018-09-03T20:44:16.310Z,4.57
2018-09-03T20:46:44.519Z,4.60
2018-09-03T20:49:12.741Z,4.57
2018-09-03T20:51:41.031Z,4.90
2018-09-03T20:54:09.245Z,4.33
2018-09-03T20:56:37.447Z,4.83
2018-09-03T20:59:05.663Z,4.63
2018-09-03T21:01:40.519Z,5.27
2018-09-03T21:04:08.747Z,4.87
2018-09-03T21:06:36.959Z,4.60
2018-09-03T21:09:06.246Z,5.53
2018-09-03T21:11:34.731Z,4.67
2018-09-03T21:14:03.605Z,4.93
2018-09-03T21:16:31.771Z,5.20
2018-09-03T21:18:59.999Z,5.70
2018-09-03T21:21:28.211Z,4.73
2018-09-03T21:23:56.487Z,4.77
2018-09-03T21:26:24.667Z,4.97
2018-09-03T21:28:52.886Z,5.80
2018-09-03T21:31:21.098Z,5.17
2018-09-03T21:33:49.338Z,5.37
2018-09-03T21:36:17.563Z,5.60
2018-09-03T21:38:45.773Z,5.40
2018-09-03T21:41:13.995Z,4.90
2018-09-03T21:43:42.211Z,5.60
2018-09-03T21:46:10.419Z,5.20
2018-09-03T21:48:38.700Z,5.13
2018-09-03T21:51:06.902Z,4.83
2018-09-03T21:53:35.168Z,4.87
2018-09-03T21:56:03.387Z,4.67
2018-09-03T21:58:31.621Z,4.60
2018-09-03T22:00:59.841Z,5.13
2018-09-03T22:03:28.221Z,5.03
2018-09-03T22:05:56.823Z,4.67
2018-09-03T22:08:25.034Z,5.10
2018-09-03T22:10:53.262Z,5.40
2018-09-03T22:13:21.483Z,4.93
2018-09-03T22:15:56.325Z,5.20
2018-09-03T22:18:24.544Z,5.83
2018-09-03T22:20:52.775Z,5.57
2018-09-03T22:23:20.991Z,5.10
2018-09-03T22:25:49.215Z,4.13
2018-09-03T22:28:17.438Z,4.70
2018-09-03T22:30:45.663Z,5.03
2018-09-03T22:33:13.887Z,4.80
2018-09-03T22:35:42.114Z,5.17
2018-09-03T22:38:10.320Z,5.30
2018-09-03T22:40:38.545Z,4.57
2018-09-03T22:43:06.757Z,4.80
2018-09-03T22:45:34.984Z,5.20
2018-09-03T22:48:03.198Z,4.90
2018-09-03T22:50:31.481Z,5.00
2018-09-03T22:52:59.701Z,5.20
2018-09-03T22:55:27.935Z,5.10
2018-09-03T22:57:56.149Z,5.17
2018-09-03T23:00:24.359Z,4.60
2018-09-03T23:02:52.533Z,4.67
2018-09-03T23:05:20.721Z,4.93
2018-09-03T23:07:48.896Z,4.50
2018-09-03T23:10:17.097Z,4.83
2018-09-03T23:12:45.285Z,4.80
2018-09-03T23:15:13.462Z,4.80
2018-09-03T23:17:41.642Z,4.40
2018-09-03T23:20:09.815Z,4.73
2018-09-03T23:22:37.999Z,4.97
2018-09-03T23:25:06.193Z,4.80
2018-09-03T23:27:34.394Z,5.03
2018-09-03T23:30:02.585Z,5.00
2018-09-03T23:32:30.774Z,5.13
2018-09-03T23:34:58.975Z,5.43
2018-09-03T23:37:27.166Z,5.33
2018-09-03T23:39:55.344Z,4.50
2018-09-03T23:42:23.539Z,4.93
2018-09-03T23:44:51.716Z,5.90
2018-09-03T23:47:19.914Z,5.10
2018-09-03T23:49:48.094Z,4.90
2018-09-03T23:52:16.288Z,5.93
2018-09-03T23:54:44.665Z,5.30
2018-09-03T23:57:12.861Z,4.23
2018-09-03T23:59:41.065Z,5.10
